sensor_id;sensor_type;location;lat;lon;timestamp;temperature;humidity
22925;DHT22;11628;51.072;3.712;2023-03-14T00:02:07;11.50;99.90
22925;DHT22;11628;51.072;3.712;2023-03-14T00:04:33;11.50;99.90
22925;DHT22;11628;51.072;3.712;2023-03-14T00:06:58;11.40;99.90
22925;DHT22;11628;51.072;3.712;2023-03-14T00:09:24;11.40;99.90
22925;DHT22;11628;51.072;3.712;2023-03-14T00:11:52;11.30;99.90
22925;DHT22;11628;51.072;3.712;2023-03-14T00:14:18;11.30;99.90
22925;DHT22;11628;51.072;3.712;2023-03-14T00:16:47;11.30;99.90
22925;DHT22;11628;51.072;3.712;2023-03-14T00:19:13;11.20;99.90
22925;DHT22;11628;51.072;3.712;2023-03-14T00:21:39;11.20;99.90
22925;DHT22;11628;51.072;3.712;2023-03-14T00:24:05;11.30;99.90
22925;DHT22;11628;51.072;3.712;2023-03-14T00:26:31;11.30;99.90
22925;DHT22;11628;51.072;3.712;2023-03-14T00:28:57;11.30;99.90
22925;DHT22;11628;51.072;3.712;2023-03-14T00:31:23;11.20;99.90
22925;DHT22;11628;51.072;3.712;2023-03-14T00:33:50;11.20;99.90
22925;DHT22;11628;51.072;3.712;2023-03-14T00:36:17;11.20;99.90
22925;DHT22;11628;51.072;3.712;2023-03-14T00:38:44;11.20;99.90
22925;DHT22;11628;51.072;3.712;2023-03-14T00:41:12;11.20;99.90
22925;DHT22;11628;51.072;3.712;2023-03-14T00:43:39;11.20;99.90
22925;DHT22;11628;51.072;3.712;2023-03-14T00:46:05;11.20;99.90
22925;DHT22;11628;51.072;3.712;2023-03-14T00:48:31;11.20;99.90
22925;DHT22;11628;51.072;3.712;2023-03-14T00:50:56;11.20;99.90
22925;DHT22;11628;51.072;3.712;2023-03-14T00:53:22;11.10;99.90
22925;DHT22;11628;51.072;3.712;2023-03-14T00:55:48;11.10;99.90
22925;DHT22;11628;51.072;3.712;2023-03-14T00:58:16;11.00;99.90
22925;DHT22;11628;51.072;3.712;2023-03-14T01:00:43;11.00;99.90
22925;DHT22;11628;51.072;3.712;2023-03-14T01:03:09;11.10;99.90
22925;DHT22;11628;51.072;3.712;2023-03-14T01:05:35;11.10;99.90
22925;DHT22;11628;51.072;3.712;2023-03-14T01:08:02;11.10;99.90
22925;DHT22;11628;51.072;3.712;2023-03-14T01:10:28;11.10;99.90
22925;DHT22;11628;51.072;3.712;2023-03-14T01:12:54;11.10;99.90
22925;DHT22;11628;51.072;3.712;2023-03-14T01:15:20;11.10;99.90
22925;DHT22;11628;51.072;3.712;2023-03-14T01:17:46;11.10;99.90
22925;DHT22;11628;51.072;3.712;2023-03-14T01:20:13;11.10;99.90
22925;DHT22;11628;51.072;3.712;2023-03-14T01:22:40;11.10;99.90
22925;DHT22;11628;51.072;3.712;2023-03-14T01:25:08;11.00;99.90
22925;DHT22;11628;51.072;3.712;2023-03-14T01:27:34;11.00;99.90
22925;DHT22;11628;51.072;3.712;2023-03-14T01:30:00;10.90;99.90
22925;DHT22;11628;51.072;3.712;2023-03-14T01:32:25;11.00;99.90
22925;DHT22;11628;51.072;3.712;2023-03-14T01:34:51;11.00;99.90
22925;DHT22;11628;51.072;3.712;2023-03-14T01:37:17;11.00;99.90
22925;DHT22;11628;51.072;3.712;2023-03-14T01:39:43;11.00;99.90
22925;DHT22;11628;51.072;3.712;2023-03-14T01:42:09;10.90;99.90
22925;DHT22;11628;51.072;3.712;2023-03-14T01:47:51;10.90;99.90
22925;DHT22;11628;51.072;3.712;2023-03-14T01:50:16;10.90;99.90
22925;DHT22;11628;51.072;3.712;2023-03-14T01:52:48;10.90;99.90
22925;DHT22;11628;51.072;3.712;2023-03-14T01:55:22;10.90;99.90
22925;DHT22;11628;51.072;3.712;2023-03-14T01:57:52;11.00;99.90
22925;DHT22;11628;51.072;3.712;2023-03-14T02:00:22;11.00;99.90
22925;DHT22;11628;51.072;3.712;2023-03-14T02:02:51;11.00;99.90
22925;DHT22;11628;51.072;3.712;2023-03-14T02:05:23;11.00;99.90
22925;DHT22;11628;51.072;3.712;2023-03-14T02:07:52;11.00;99.90
22925;DHT22;11628;51.072;3.712;2023-03-14T02:10:21;11.00;99.90
22925;DHT22;11628;51.072;3.712;2023-03-14T02:12:49;11.10;99.90
22925;DHT22;11628;51.072;3.712;2023-03-14T02:15:16;11.00;99.90
22925;DHT22;11628;51.072;3.712;2023-03-14T02:17:44;11.00;99.90
22925;DHT22;11628;51.072;3.712;2023-03-14T02:22:47;11.00;99.90
22925;DHT22;11628;51.072;3.712;2023-03-14T02:28:03;10.90;99.90
22925;DHT22;11628;51.072;3.712;2023-03-14T02:30:30;10.90;99.90
22925;DHT22;11628;51.072;3.712;2023-03-14T02:33:03;10.90;99.90
22925;DHT22;11628;51.072;3.712;2023-03-14T02:35:39;10.90;99.90
22925;DHT22;11628;51.072;3.712;2023-03-14T02:38:38;10.90;99.90
22925;DHT22;11628;51.072;3.712;2023-03-14T02:41:05;10.80;99.90
22925;DHT22;11628;51.072;3.712;2023-03-14T02:43:31;10.70;99.90
22925;DHT22;11628;51.072;3.712;2023-03-14T02:45:57;10.70;99.90
22925;DHT22;11628;51.072;3.712;2023-03-14T02:48:29;10.60;99.90
22925;DHT22;11628;51.072;3.712;2023-03-14T02:50:58;10.60;99.90
22925;DHT22;11628;51.072;3.712;2023-03-14T02:53:33;10.60;99.90
22925;DHT22;11628;51.072;3.712;2023-03-14T02:55:59;10.60;99.90
22925;DHT22;11628;51.072;3.712;2023-03-14T02:58:26;10.60;99.90
22925;DHT22;11628;51.072;3.712;2023-03-14T03:00:53;10.60;99.90
22925;DHT22;11628;51.072;3.712;2023-03-14T03:03:19;10.60;99.90
22925;DHT22;11628;51.072;3.712;2023-03-14T03:05:51;10.60;99.90
22925;DHT22;11628;51.072;3.712;2023-03-14T03:08:18;10.60;99.90
22925;DHT22;11628;51.072;3.712;2023-03-14T03:10:44;10.50;99.90
22925;DHT22;11628;51.072;3.712;2023-03-14T03:13:09;10.50;99.90
22925;DHT22;11628;51.072;3.712;2023-03-14T03:15:35;10.50;99.90
22925;DHT22;11628;51.072;3.712;2023-03-14T03:18:01;10.50;99.90
22925;DHT22;11628;51.072;3.712;2023-03-14T03:20:27;10.60;99.90
22925;DHT22;11628;51.072;3.712;2023-03-14T03:22:52;10.60;99.90
22925;DHT22;11628;51.072;3.712;2023-03-14T03:25:18;10.60;99.90
22925;DHT22;11628;51.072;3.712;2023-03-14T03:27:44;10.70;99.90
22925;DHT22;11628;51.072;3.712;2023-03-14T03:30:10;10.60;99.90
22925;DHT22;11628;51.072;3.712;2023-03-14T03:32:36;10.60;99.90
22925;DHT22;11628;51.072;3.712;2023-03-14T03:35:03;10.60;99.90
22925;DHT22;11628;51.072;3.712;2023-03-14T03:37:33;10.60;99.90
22925;DHT22;11628;51.072;3.712;2023-03-14T03:39:59;10.60;99.90
22925;DHT22;11628;51.072;3.712;2023-03-14T03:42:26;10.70;99.90
22925;DHT22;11628;51.072;3.712;2023-03-14T03:44:52;10.70;99.90
22925;DHT22;11628;51.072;3.712;2023-03-14T03:47:18;10.70;99.90
22925;DHT22;11628;51.072;3.712;2023-03-14T03:49:44;10.70;99.90
22925;DHT22;11628;51.072;3.712;2023-03-14T03:52:09;10.70;99.90
22925;DHT22;11628;51.072;3.712;2023-03-14T03:54:35;10.80;99.90
22925;DHT22;11628;51.072;3.712;2023-03-14T03:57:01;10.80;99.90
22925;DHT22;11628;51.072;3.712;2023-03-14T03:59:27;10.80;99.90
22925;DHT22;11628;51.072;3.712;2023-03-14T04:01:52;10.70;99.90
22925;DHT22;11628;51.072;3.712;2023-03-14T04:04:18;10.60;99.90
22925;DHT22;11628;51.072;3.712;2023-03-14T04:06:44;10.60;99.90
22925;DHT22;11628;51.072;3.712;2023-03-14T04:09:11;10.50;99.90
22925;DHT22;11628;51.072;3.712;2023-03-14T04:11:37;10.50;99.90
22925;DHT22;11628;51.072;3.712;2023-03-14T04:14:04;10.50;99.90
22925;DHT22;11628;51.072;3.712;2023-03-14T04:16:30;10.50;99.90
22925;DHT22;11628;51.072;3.712;2023-03-14T04:18:59;10.50;99.90
22925;DHT22;11628;51.072;3.712;2023-03-14T04:21:25;10.50;99.90
22925;DHT22;11628;51.072;3.712;2023-03-14T04:23:51;10.50;99.90
22925;DHT22;11628;51.072;3.712;2023-03-14T04:26:16;10.50;99.90
22925;DHT22;11628;51.072;3.712;2023-03-14T04:28:42;10.40;99.90
22925;DHT22;11628;51.072;3.712;2023-03-14T04:31:10;10.40;99.90
22925;DHT22;11628;51.072;3.712;2023-03-14T04:33:36;10.40;99.90
22925;DHT22;11628;51.072;3.712;2023-03-14T04:36:03;10.40;99.90
22925;DHT22;11628;51.072;3.712;2023-03-14T04:38:29;10.50;99.90
22925;DHT22;11628;51.072;3.712;2023-03-14T04:40:55;10.40;99.90
22925;DHT22;11628;51.072;3.712;2023-03-14T04:43:21;10.50;99.90
22925;DHT22;11628;51.072;3.712;2023-03-14T04:45:46;10.50;99.90
22925;DHT22;11628;51.072;3.712;2023-03-14T04:48:12;10.50;99.90
22925;DHT22;11628;51.072;3.712;2023-03-14T04:50:38;10.50;99.90
22925;DHT22;11628;51.072;3.712;2023-03-14T04:53:04;10.60;99.90
22925;DHT22;11628;51.072;3.712;2023-03-14T04:55:31;10.60;99.90
22925;DHT22;11628;51.072;3.712;2023-03-14T04:57:58;10.60;99.90
22925;DHT22;11628;51.072;3.712;2023-03-14T05:00:24;10.70;99.90
22925;DHT22;11628;51.072;3.712;2023-03-14T05:02:50;10.70;99.90
22925;DHT22;11628;51.072;3.712;2023-03-14T05:05:15;10.70;99.90
22925;DHT22;11628;51.072;3.712;2023-03-14T05:07:41;10.70;99.90
22925;DHT22;11628;51.072;3.712;2023-03-14T05:10:07;10.70;99.90
22925;DHT22;11628;51.072;3.712;2023-03-14T05:12:33;10.70;99.90
22925;DHT22;11628;51.072;3.712;2023-03-14T05:14:59;10.60;99.90
22925;DHT22;11628;51.072;3.712;2023-03-14T05:17:25;10.50;99.90
22925;DHT22;11628;51.072;3.712;2023-03-14T05:19:50;10.50;99.90
22925;DHT22;11628;51.072;3.712;2023-03-14T05:22:18;10.40;99.90
22925;DHT22;11628;51.072;3.712;2023-03-14T05:24:43;10.40;99.90
22925;DHT22;11628;51.072;3.712;2023-03-14T05:27:09;10.40;99.90
22925;DHT22;11628;51.072;3.712;2023-03-14T05:29:35;10.40;99.90
22925;DHT22;11628;51.072;3.712;2023-03-14T05:32:01;10.30;99.90
22925;DHT22;11628;51.072;3.712;2023-03-14T05:34:26;10.30;99.90
22925;DHT22;11628;51.072;3.712;2023-03-14T05:36:52;10.40;99.90
22925;DHT22;11628;51.072;3.712;2023-03-14T05:39:18;10.40;99.90
22925;DHT22;11628;51.072;3.712;2023-03-14T05:41:44;10.30;99.90
22925;DHT22;11628;51.072;3.712;2023-03-14T05:44:09;10.50;99.90
22925;DHT22;11628;51.072;3.712;2023-03-14T05:46:35;10.60;99.90
22925;DHT22;11628;51.072;3.712;2023-03-14T05:49:01;10.50;99.90
22925;DHT22;11628;51.072;3.712;2023-03-14T05:51:26;10.40;99.90
22925;DHT22;11628;51.072;3.712;2023-03-14T05:53:52;10.30;99.90
22925;DHT22;11628;51.072;3.712;2023-03-14T05:56:19;10.20;99.90
22925;DHT22;11628;51.072;3.712;2023-03-14T05:58:45;10.10;99.90
22925;DHT22;11628;51.072;3.712;2023-03-14T06:01:10;10.10;99.90
22925;DHT22;11628;51.072;3.712;2023-03-14T06:03:36;10.00;99.90
22925;DHT22;11628;51.072;3.712;2023-03-14T06:06:02;10.00;99.90
22925;DHT22;11628;51.072;3.712;2023-03-14T06:08:28;9.90;99.90
22925;DHT22;11628;51.072;3.712;2023-03-14T06:10:54;9.90;99.90
22925;DHT22;11628;51.072;3.712;2023-03-14T06:13:20;9.80;99.90
22925;DHT22;11628;51.072;3.712;2023-03-14T06:15:46;9.80;99.90
22925;DHT22;11628;51.072;3.712;2023-03-14T06:18:12;9.80;99.90
22925;DHT22;11628;51.072;3.712;2023-03-14T06:20:39;9.80;99.90
22925;DHT22;11628;51.072;3.712;2023-03-14T06:23:06;9.80;99.90
22925;DHT22;11628;51.072;3.712;2023-03-14T06:25:33;9.80;99.90
22925;DHT22;11628;51.072;3.712;2023-03-14T06:27:59;9.70;99.90
22925;DHT22;11628;51.072;3.712;2023-03-14T06:30:25;9.70;99.90
22925;DHT22;11628;51.072;3.712;2023-03-14T06:32:50;9.70;99.90
22925;DHT22;11628;51.072;3.712;2023-03-14T06:35:17;9.60;99.90
22925;DHT22;11628;51.072;3.712;2023-03-14T06:37:43;9.60;99.90
22925;DHT22;11628;51.072;3.712;2023-03-14T06:40:10;9.60;99.90
22925;DHT22;11628;51.072;3.712;2023-03-14T06:42:36;9.70;99.90
22925;DHT22;11628;51.072;3.712;2023-03-14T06:45:02;9.60;99.90
22925;DHT22;11628;51.072;3.712;2023-03-14T06:47:28;9.60;99.90
22925;DHT22;11628;51.072;3.712;2023-03-14T06:49:54;9.60;99.90
22925;DHT22;11628;51.072;3.712;2023-03-14T06:52:20;9.50;99.90
22925;DHT22;11628;51.072;3.712;2023-03-14T06:54:45;9.50;99.90
22925;DHT22;11628;51.072;3.712;2023-03-14T06:57:11;9.50;99.90
22925;DHT22;11628;51.072;3.712;2023-03-14T06:59:39;9.40;99.90
22925;DHT22;11628;51.072;3.712;2023-03-14T07:02:10;9.40;99.90
22925;DHT22;11628;51.072;3.712;2023-03-14T07:04:35;9.30;99.90
22925;DHT22;11628;51.072;3.712;2023-03-14T07:07:01;9.30;99.90
22925;DHT22;11628;51.072;3.712;2023-03-14T07:09:27;9.20;99.90
22925;DHT22;11628;51.072;3.712;2023-03-14T07:11:53;9.10;99.90
22925;DHT22;11628;51.072;3.712;2023-03-14T07:14:18;9.10;99.90
22925;DHT22;11628;51.072;3.712;2023-03-14T07:16:44;9.10;99.90
22925;DHT22;11628;51.072;3.712;2023-03-14T07:19:10;9.20;99.90
22925;DHT22;11628;51.072;3.712;2023-03-14T07:21:36;9.20;99.90
22925;DHT22;11628;51.072;3.712;2023-03-14T07:24:02;9.10;99.90
22925;DHT22;11628;51.072;3.712;2023-03-14T07:26:28;9.10;99.90
22925;DHT22;11628;51.072;3.712;2023-03-14T07:28:54;9.20;99.90
22925;DHT22;11628;51.072;3.712;2023-03-14T07:31:20;9.20;99.90
22925;DHT22;11628;51.072;3.712;2023-03-14T07:33:46;9.20;99.90
22925;DHT22;11628;51.072;3.712;2023-03-14T07:36:11;9.30;99.90
22925;DHT22;11628;51.072;3.712;2023-03-14T07:38:37;9.40;99.90
22925;DHT22;11628;51.072;3.712;2023-03-14T07:41:05;9.40;99.90
22925;DHT22;11628;51.072;3.712;2023-03-14T07:43:31;9.50;99.90
22925;DHT22;11628;51.072;3.712;2023-03-14T07:45:57;9.60;99.90
22925;DHT22;11628;51.072;3.712;2023-03-14T07:48:23;9.60;99.90
22925;DHT22;11628;51.072;3.712;2023-03-14T07:50:54;9.70;99.90
22925;DHT22;11628;51.072;3.712;2023-03-14T07:53:21;9.70;99.90
22925;DHT22;11628;51.072;3.712;2023-03-14T07:55:47;9.60;99.90
22925;DHT22;11628;51.072;3.712;2023-03-14T07:58:13;9.60;99.90
22925;DHT22;11628;51.072;3.712;2023-03-14T08:00:39;9.50;99.90
22925;DHT22;11628;51.072;3.712;2023-03-14T08:03:05;9.40;99.90
22925;DHT22;11628;51.072;3.712;2023-03-14T08:05:33;9.30;99.90
22925;DHT22;11628;51.072;3.712;2023-03-14T08:07:59;9.30;99.90
22925;DHT22;11628;51.072;3.712;2023-03-14T08:10:25;9.30;99.90
22925;DHT22;11628;51.072;3.712;2023-03-14T08:12:55;9.20;99.90
22925;DHT22;11628;51.072;3.712;2023-03-14T08:15:22;9.20;99.90
22925;DHT22;11628;51.072;3.712;2023-03-14T08:17:48;9.10;99.90
22925;DHT22;11628;51.072;3.712;2023-03-14T08:20:20;9.10;99.90
22925;DHT22;11628;51.072;3.712;2023-03-14T08:22:47;9.10;99.90
22925;DHT22;11628;51.072;3.712;2023-03-14T08:25:13;9.10;99.90
22925;DHT22;11628;51.072;3.712;2023-03-14T08:27:38;9.10;99.90
22925;DHT22;11628;51.072;3.712;2023-03-14T08:30:05;9.10;99.90
22925;DHT22;11628;51.072;3.712;2023-03-14T08:32:31;9.10;99.90
22925;DHT22;11628;51.072;3.712;2023-03-14T08:34:57;9.20;99.90
22925;DHT22;11628;51.072;3.712;2023-03-14T08:37:23;9.20;99.90
22925;DHT22;11628;51.072;3.712;2023-03-14T08:39:51;9.20;99.90
22925;DHT22;11628;51.072;3.712;2023-03-14T08:42:17;9.30;99.90
22925;DHT22;11628;51.072;3.712;2023-03-14T08:44:43;9.60;99.90
22925;DHT22;11628;51.072;3.712;2023-03-14T08:47:09;10.10;99.90
22925;DHT22;11628;51.072;3.712;2023-03-14T08:49:35;10.30;99.90
22925;DHT22;11628;51.072;3.712;2023-03-14T08:52:04;10.40;99.90
22925;DHT22;11628;51.072;3.712;2023-03-14T08:54:30;10.20;99.90
22925;DHT22;11628;51.072;3.712;2023-03-14T08:56:56;10.00;99.90
22925;DHT22;11628;51.072;3.712;2023-03-14T08:59:22;9.90;99.90
22925;DHT22;11628;51.072;3.712;2023-03-14T09:01:48;9.80;99.90
22925;DHT22;11628;51.072;3.712;2023-03-14T09:04:14;9.80;99.90
22925;DHT22;11628;51.072;3.712;2023-03-14T09:06:40;9.90;99.90
22925;DHT22;11628;51.072;3.712;2023-03-14T09:09:06;9.90;99.90
22925;DHT22;11628;51.072;3.712;2023-03-14T09:11:31;9.90;99.90
22925;DHT22;11628;51.072;3.712;2023-03-14T09:13:57;9.90;99.90
22925;DHT22;11628;51.072;3.712;2023-03-14T09:16:23;10.30;99.90
22925;DHT22;11628;51.072;3.712;2023-03-14T09:18:49;10.60;99.90
22925;DHT22;11628;51.072;3.712;2023-03-14T09:21:15;10.60;99.90
22925;DHT22;11628;51.072;3.712;2023-03-14T09:23:41;10.50;99.90
22925;DHT22;11628;51.072;3.712;2023-03-14T09:26:07;10.60;99.90
22925;DHT22;11628;51.072;3.712;2023-03-14T09:28:33;10.50;99.90
22925;DHT22;11628;51.072;3.712;2023-03-14T09:31:05;10.20;99.90
22925;DHT22;11628;51.072;3.712;2023-03-14T09:33:31;10.10;99.90
22925;DHT22;11628;51.072;3.712;2023-03-14T09:36:00;9.90;99.90
22925;DHT22;11628;51.072;3.712;2023-03-14T09:38:27;9.70;99.90
22925;DHT22;11628;51.072;3.712;2023-03-14T09:40:53;9.60;99.90
22925;DHT22;11628;51.072;3.712;2023-03-14T09:43:21;9.50;99.90
22925;DHT22;11628;51.072;3.712;2023-03-14T09:45:48;9.30;99.90
22925;DHT22;11628;51.072;3.712;2023-03-14T09:48:19;9.20;99.90
22925;DHT22;11628;51.072;3.712;2023-03-14T09:50:49;9.20;99.90
22925;DHT22;11628;51.072;3.712;2023-03-14T09:53:22;9.20;99.90
22925;DHT22;11628;51.072;3.712;2023-03-14T09:55:50;9.30;99.90
22925;DHT22;11628;51.072;3.712;2023-03-14T09:58:20;9.40;99.90
22925;DHT22;11628;51.072;3.712;2023-03-14T10:00:46;9.30;99.90
22925;DHT22;11628;51.072;3.712;2023-03-14T10:05:39;9.20;99.90
22925;DHT22;11628;51.072;3.712;2023-03-14T10:08:05;9.20;99.90
22925;DHT22;11628;51.072;3.712;2023-03-14T10:10:33;9.10;99.90
22925;DHT22;11628;51.072;3.712;2023-03-14T10:13:23;9.10;99.90
22925;DHT22;11628;51.072;3.712;2023-03-14T10:16:01;9.10;99.90
22925;DHT22;11628;51.072;3.712;2023-03-14T10:18:29;9.10;99.90
22925;DHT22;11628;51.072;3.712;2023-03-14T10:21:28;9.10;99.90
22925;DHT22;11628;51.072;3.712;2023-03-14T10:23:54;9.10;99.90
22925;DHT22;11628;51.072;3.712;2023-03-14T10:26:29;9.10;99.90
22925;DHT22;11628;51.072;3.712;2023-03-14T10:29:11;9.00;99.90
22925;DHT22;11628;51.072;3.712;2023-03-14T10:31:50;9.10;99.90
22925;DHT22;11628;51.072;3.712;2023-03-14T10:34:28;9.10;99.90
22925;DHT22;11628;51.072;3.712;2023-03-14T10:37:16;9.30;99.90
22925;DHT22;11628;51.072;3.712;2023-03-14T10:39:48;9.40;99.90
22925;DHT22;11628;51.072;3.712;2023-03-14T10:42:26;9.40;99.90
22925;DHT22;11628;51.072;3.712;2023-03-14T10:44:59;9.40;99.90
22925;DHT22;11628;51.072;3.712;2023-03-14T10:47:27;9.30;99.90
22925;DHT22;11628;51.072;3.712;2023-03-14T10:49:54;9.30;99.90
22925;DHT22;11628;51.072;3.712;2023-03-14T10:52:28;9.30;99.90
22925;DHT22;11628;51.072;3.712;2023-03-14T10:55:10;9.30;99.90
22925;DHT22;11628;51.072;3.712;2023-03-14T10:57:40;9.30;99.90
22925;DHT22;11628;51.072;3.712;2023-03-14T11:00:17;9.40;99.90
22925;DHT22;11628;51.072;3.712;2023-03-14T11:03:02;9.70;99.90
22925;DHT22;11628;51.072;3.712;2023-03-14T11:08:14;10.50;99.90
22925;DHT22;11628;51.072;3.712;2023-03-14T11:10:43;10.90;99.90
22925;DHT22;11628;51.072;3.712;2023-03-14T11:13:23;11.10;99.90
22925;DHT22;11628;51.072;3.712;2023-03-14T11:21:28;11.30;99.90
22925;DHT22;11628;51.072;3.712;2023-03-14T11:27:22;11.60;99.90
22925;DHT22;11628;51.072;3.712;2023-03-14T11:29:54;10.70;99.90
22925;DHT22;11628;51.072;3.712;2023-03-14T11:32:36;9.60;99.90
22925;DHT22;11628;51.072;3.712;2023-03-14T11:35:08;9.30;99.90
22925;DHT22;11628;51.072;3.712;2023-03-14T11:37:50;9.50;99.90
22925;DHT22;11628;51.072;3.712;2023-03-14T11:40:21;9.80;99.90
22925;DHT22;11628;51.072;3.712;2023-03-14T11:43:00;10.10;99.90
22925;DHT22;11628;51.072;3.712;2023-03-14T11:45:34;10.30;99.90
22925;DHT22;11628;51.072;3.712;2023-03-14T11:48:22;10.40;99.90
22925;DHT22;11628;51.072;3.712;2023-03-14T11:50:52;10.30;99.90
22925;DHT22;11628;51.072;3.712;2023-03-14T11:53:26;10.20;99.90
22925;DHT22;11628;51.072;3.712;2023-03-14T11:55:54;10.10;99.90
22925;DHT22;11628;51.072;3.712;2023-03-14T11:58:26;10.10;99.90
22925;DHT22;11628;51.072;3.712;2023-03-14T12:00:54;10.00;99.90
22925;DHT22;11628;51.072;3.712;2023-03-14T12:03:38;10.10;99.90
22925;DHT22;11628;51.072;3.712;2023-03-14T12:08:49;10.40;99.90
22925;DHT22;11628;51.072;3.712;2023-03-14T12:13:54;10.40;99.90
22925;DHT22;11628;51.072;3.712;2023-03-14T12:18:49;10.20;99.90
22925;DHT22;11628;51.072;3.712;2023-03-14T12:21:14;10.10;99.90
22925;DHT22;11628;51.072;3.712;2023-03-14T12:23:58;10.10;99.90
22925;DHT22;11628;51.072;3.712;2023-03-14T12:26:25;10.20;99.90
22925;DHT22;11628;51.072;3.712;2023-03-14T12:29:11;10.20;99.90
22925;DHT22;11628;51.072;3.712;2023-03-14T12:31:45;10.50;99.90
22925;DHT22;11628;51.072;3.712;2023-03-14T12:44:48;10.60;99.90
22925;DHT22;11628;51.072;3.712;2023-03-14T12:50:18;10.30;99.90
22925;DHT22;11628;51.072;3.712;2023-03-14T12:55:46;10.00;99.90
22925;DHT22;11628;51.072;3.712;2023-03-14T13:01:05;9.90;99.90
22925;DHT22;11628;51.072;3.712;2023-03-14T13:06:44;9.70;99.90
22925;DHT22;11628;51.072;3.712;2023-03-14T13:09:35;9.80;99.90
22925;DHT22;11628;51.072;3.712;2023-03-14T13:12:13;10.20;99.90
22925;DHT22;11628;51.072;3.712;2023-03-14T13:14:49;10.50;99.90
22925;DHT22;11628;51.072;3.712;2023-03-14T13:17:24;10.80;99.90
22925;DHT22;11628;51.072;3.712;2023-03-14T13:19:57;11.10;99.90
22925;DHT22;11628;51.072;3.712;2023-03-14T13:22:28;11.50;99.90
22925;DHT22;11628;51.072;3.712;2023-03-14T13:25:03;11.80;99.90
22925;DHT22;11628;51.072;3.712;2023-03-14T13:27:33;12.00;99.90
22925;DHT22;11628;51.072;3.712;2023-03-14T13:29:59;12.20;99.90
22925;DHT22;11628;51.072;3.712;2023-03-14T13:32:30;12.30;99.90
22925;DHT22;11628;51.072;3.712;2023-03-14T13:34:57;12.60;99.90
22925;DHT22;11628;51.072;3.712;2023-03-14T13:37:25;13.00;99.90
22925;DHT22;11628;51.072;3.712;2023-03-14T13:39:53;13.30;99.90
22925;DHT22;11628;51.072;3.712;2023-03-14T13:42:21;13.50;99.90
22925;DHT22;11628;51.072;3.712;2023-03-14T13:44:51;13.50;99.90
22925;DHT22;11628;51.072;3.712;2023-03-14T13:47:20;13.20;99.90
22925;DHT22;11628;51.072;3.712;2023-03-14T13:49:47;12.90;99.90
22925;DHT22;11628;51.072;3.712;2023-03-14T13:52:30;12.50;99.90
22925;DHT22;11628;51.072;3.712;2023-03-14T13:54:57;12.10;99.90
22925;DHT22;11628;51.072;3.712;2023-03-14T13:57:24;11.70;99.90
22925;DHT22;11628;51.072;3.712;2023-03-14T14:00:05;11.30;99.90
22925;DHT22;11628;51.072;3.712;2023-03-14T14:02:34;11.00;99.90
22925;DHT22;11628;51.072;3.712;2023-03-14T14:05:01;10.70;99.90
22925;DHT22;11628;51.072;3.712;2023-03-14T14:07:27;10.60;99.90
22925;DHT22;11628;51.072;3.712;2023-03-14T14:09:54;10.50;99.90
22925;DHT22;11628;51.072;3.712;2023-03-14T14:12:36;10.40;99.90
22925;DHT22;11628;51.072;3.712;2023-03-14T14:15:09;10.40;99.90
22925;DHT22;11628;51.072;3.712;2023-03-14T14:18:01;10.60;99.90
22925;DHT22;11628;51.072;3.712;2023-03-14T14:20:49;10.60;99.90
22925;DHT22;11628;51.072;3.712;2023-03-14T14:23:28;10.60;99.90
22925;DHT22;11628;51.072;3.712;2023-03-14T14:25:56;10.70;99.90
22925;DHT22;11628;51.072;3.712;2023-03-14T14:28:29;10.90;99.90
22925;DHT22;11628;51.072;3.712;2023-03-14T14:36:17;11.10;99.90
22925;DHT22;11628;51.072;3.712;2023-03-14T14:39:09;11.20;99.90
22925;DHT22;11628;51.072;3.712;2023-03-14T14:41:40;11.20;99.90
22925;DHT22;11628;51.072;3.712;2023-03-14T14:44:07;11.20;99.90
22925;DHT22;11628;51.072;3.712;2023-03-14T14:46:34;11.20;99.90
22925;DHT22;11628;51.072;3.712;2023-03-14T14:49:13;11.20;99.90
22925;DHT22;11628;51.072;3.712;2023-03-14T14:51:50;11.10;99.90
22925;DHT22;11628;51.072;3.712;2023-03-14T14:54:18;11.00;99.90
22925;DHT22;11628;51.072;3.712;2023-03-14T14:56:51;11.00;99.90
22925;DHT22;11628;51.072;3.712;2023-03-14T14:59:24;11.00;99.90
22925;DHT22;11628;51.072;3.712;2023-03-14T15:01:55;10.90;99.90
22925;DHT22;11628;51.072;3.712;2023-03-14T15:04:21;10.90;99.90
22925;DHT22;11628;51.072;3.712;2023-03-14T15:06:49;10.90;99.90
22925;DHT22;11628;51.072;3.712;2023-03-14T15:09:16;10.90;99.90
22925;DHT22;11628;51.072;3.712;2023-03-14T15:11:46;10.80;99.90
22925;DHT22;11628;51.072;3.712;2023-03-14T15:14:12;10.80;99.90
22925;DHT22;11628;51.072;3.712;2023-03-14T15:16:39;10.80;99.90
22925;DHT22;11628;51.072;3.712;2023-03-14T15:19:23;10.80;99.90
22925;DHT22;11628;51.072;3.712;2023-03-14T15:21:50;10.90;99.90
22925;DHT22;11628;51.072;3.712;2023-03-14T15:24:16;10.90;99.90
22925;DHT22;11628;51.072;3.712;2023-03-14T15:26:41;11.00;99.90
22925;DHT22;11628;51.072;3.712;2023-03-14T15:29:10;11.00;99.90
22925;DHT22;11628;51.072;3.712;2023-03-14T15:31:38;11.00;99.90
22925;DHT22;11628;51.072;3.712;2023-03-14T15:34:04;11.10;99.90
22925;DHT22;11628;51.072;3.712;2023-03-14T15:36:33;11.10;99.90
22925;DHT22;11628;51.072;3.712;2023-03-14T15:39:00;11.20;99.90
22925;DHT22;11628;51.072;3.712;2023-03-14T15:41:26;11.10;99.90
22925;DHT22;11628;51.072;3.712;2023-03-14T15:43:52;11.20;99.90
22925;DHT22;11628;51.072;3.712;2023-03-14T15:46:18;11.20;99.90
22925;DHT22;11628;51.072;3.712;2023-03-14T15:48:48;11.30;99.90
22925;DHT22;11628;51.072;3.712;2023-03-14T15:51:14;11.40;99.90
22925;DHT22;11628;51.072;3.712;2023-03-14T15:53:41;11.50;99.90
22925;DHT22;11628;51.072;3.712;2023-03-14T15:56:13;11.90;99.90
22925;DHT22;11628;51.072;3.712;2023-03-14T15:58:39;12.20;99.90
22925;DHT22;11628;51.072;3.712;2023-03-14T16:01:07;12.50;99.90
22925;DHT22;11628;51.072;3.712;2023-03-14T16:03:36;12.60;99.90
22925;DHT22;11628;51.072;3.712;2023-03-14T16:06:02;12.80;99.90
22925;DHT22;11628;51.072;3.712;2023-03-14T16:08:28;12.80;99.90
22925;DHT22;11628;51.072;3.712;2023-03-14T16:10:58;12.70;99.90
22925;DHT22;11628;51.072;3.712;2023-03-14T16:13:24;12.50;99.90
22925;DHT22;11628;51.072;3.712;2023-03-14T16:15:58;12.40;99.90
22925;DHT22;11628;51.072;3.712;2023-03-14T16:18:28;12.10;99.90
22925;DHT22;11628;51.072;3.712;2023-03-14T16:21:01;11.90;99.90
22925;DHT22;11628;51.072;3.712;2023-03-14T16:23:28;11.70;99.90
22925;DHT22;11628;51.072;3.712;2023-03-14T16:25:54;11.60;99.90
22925;DHT22;11628;51.072;3.712;2023-03-14T16:28:21;11.50;99.90
22925;DHT22;11628;51.072;3.712;2023-03-14T16:30:47;11.50;99.90
22925;DHT22;11628;51.072;3.712;2023-03-14T16:33:13;11.50;99.90
22925;DHT22;11628;51.072;3.712;2023-03-14T16:35:40;11.40;99.90
22925;DHT22;11628;51.072;3.712;2023-03-14T16:38:06;11.40;99.90
22925;DHT22;11628;51.072;3.712;2023-03-14T16:40:32;11.30;99.90
22925;DHT22;11628;51.072;3.712;2023-03-14T16:42:57;11.30;99.90